createdAt,value
2019-05-14T00:00:14.010Z,22.80
2019-05-14T00:02:43.179Z,22.80
2019-05-14T00:05:12.375Z,22.80
2019-05-14T00:07:41.600Z,22.80
2019-05-14T00:10:11.884Z,22.80
2019-05-14T00:12:41.864Z,22.70
2019-05-14T00:15:12.038Z,22.70
2019-05-14T00:17:41.798Z,22.80
2019-05-14T00:20:13.172Z,22.80
2019-05-14T00:22:41.927Z,22.70
2019-05-14T00:25:11.816Z,22.80
2019-05-14T00:27:41.620Z,22.80
2019-05-14T00:30:11.605Z,22.40
2019-05-14T00:32:41.391Z,22.40
2019-05-14T00:35:11.135Z,22.40
2019-05-14T00:37:41.422Z,22.40
2019-05-14T00:40:11.827Z,22.40
2019-05-14T00:42:41.435Z,22.30
2019-05-14T00:45:11.708Z,22.20
2019-05-14T00:47:42.029Z,22.20
2019-05-14T00:50:12.247Z,22.20
2019-05-14T00:52:44.270Z,22.10
2019-05-14T00:55:12.493Z,22.00
2019-05-14T00:57:42.499Z,22.00
2019-05-14T01:00:12.159Z,21.90
2019-05-14T01:02:41.756Z,21.80
2019-05-14T01:05:12.524Z,21.80
2019-05-14T01:07:42.708Z,21.80
2019-05-14T01:10:13.722Z,21.80
2019-05-14T01:12:42.836Z,21.80
2019-05-14T01:15:14.271Z,21.70
2019-05-14T01:17:43.082Z,21.60
2019-05-14T01:20:12.887Z,21.70
2019-05-14T01:22:42.420Z,21.70
2019-05-14T01:25:12.058Z,21.70
2019-05-14T01:27:41.514Z,21.60
2019-05-14T01:30:12.464Z,21.50
2019-05-14T01:32:42.025Z,21.50
2019-05-14T01:35:12.051Z,21.60
2019-05-14T01:37:41.807Z,21.50
2019-05-14T01:42:48.662Z,21.50
2019-05-14T01:45:25.155Z,21.60
2019-05-14T01:47:48.864Z,21.70
2019-05-14T01:50:21.534Z,21.70
2019-05-14T01:52:52.091Z,21.80
2019-05-14T01:55:21.992Z,21.80
2019-05-14T01:57:51.751Z,21.70
2019-05-14T02:00:22.002Z,21.50
2019-05-14T02:02:52.400Z,21.50
2019-05-14T02:05:21.939Z,21.40
2019-05-14T02:07:52.577Z,21.30
2019-05-14T02:10:22.163Z,21.20
2019-05-14T02:12:51.695Z,21.10
2019-05-14T02:15:21.374Z,20.90
2019-05-14T02:17:51.869Z,20.70
2019-05-14T02:20:21.685Z,20.60
2019-05-14T02:22:52.496Z,20.50
2019-05-14T02:25:21.806Z,20.40
2019-05-14T02:27:52.068Z,20.30
2019-05-14T02:30:28.506Z,20.20
2019-05-14T02:32:51.947Z,20.10
2019-05-14T02:35:21.255Z,20.00
2019-05-14T02:37:50.701Z,19.80
2019-05-14T02:40:20.465Z,19.80
2019-05-14T02:42:49.970Z,19.60
2019-05-14T02:45:19.833Z,19.50
2019-05-14T02:47:50.318Z,19.40
2019-05-14T02:50:20.212Z,19.30
2019-05-14T02:52:50.787Z,19.20
2019-05-14T02:55:20.161Z,19.20
2019-05-14T02:57:50.075Z,19.10
2019-05-14T03:00:19.658Z,19.00
2019-05-14T03:02:49.832Z,18.90
2019-05-14T03:05:19.410Z,18.90
2019-05-14T03:07:50.019Z,18.80
2019-05-14T03:10:19.606Z,18.70
2019-05-14T03:12:49.997Z,18.60
2019-05-14T03:15:20.216Z,18.50
2019-05-14T03:17:51.303Z,18.50
2019-05-14T03:20:20.207Z,18.40
2019-05-14T03:23:01.727Z,18.30
2019-05-14T03:25:20.541Z,18.20
2019-05-14T03:27:49.967Z,18.20
2019-05-14T03:30:23.023Z,18.10
2019-05-14T03:32:53.069Z,18.10
2019-05-14T03:35:28.830Z,18.00
2019-05-14T03:37:53.983Z,18.00
2019-05-14T03:40:23.283Z,17.90
2019-05-14T03:42:52.344Z,17.90
2019-05-14T03:45:21.441Z,17.80
2019-05-14T03:47:50.815Z,17.70
2019-05-14T03:50:19.939Z,17.70
2019-05-14T03:52:50.059Z,17.60
2019-05-14T03:55:20.238Z,17.60
2019-05-14T03:57:49.976Z,17.50
2019-05-14T04:00:22.156Z,17.50
2019-05-14T04:02:52.317Z,17.40
2019-05-14T04:05:22.671Z,17.30
2019-05-14T04:07:52.697Z,17.20
2019-05-14T04:10:21.867Z,17.20
2019-05-14T04:12:52.049Z,17.10
2019-05-14T04:15:23.946Z,17.00
2019-05-14T04:17:53.543Z,17.00
2019-05-14T04:20:22.647Z,16.90
2019-05-14T04:22:54.168Z,16.90
2019-05-14T04:25:23.839Z,16.80
2019-05-14T04:27:54.378Z,16.70
2019-05-14T04:30:24.512Z,16.60
2019-05-14T04:32:59.152Z,16.60
2019-05-14T04:35:29.472Z,16.50
2019-05-14T04:37:58.874Z,16.40
2019-05-14T04:40:29.649Z,16.30
2019-05-14T04:42:59.267Z,16.30
2019-05-14T04:45:29.691Z,16.20
2019-05-14T04:48:00.204Z,16.10
2019-05-14T04:50:29.864Z,16.10
2019-05-14T04:52:59.921Z,16.10
2019-05-14T04:55:30.254Z,16.00
2019-05-14T04:57:59.522Z,16.00
2019-05-14T05:00:30.538Z,15.90
2019-05-14T05:03:00.199Z,15.90
2019-05-14T05:05:30.100Z,15.90
2019-05-14T05:07:59.815Z,15.90
2019-05-14T05:10:29.802Z,15.90
2019-05-14T05:12:59.207Z,15.90
2019-05-14T05:15:29.067Z,15.90
2019-05-14T05:17:59.006Z,15.80
2019-05-14T05:20:29.173Z,15.90
2019-05-14T05:22:59.124Z,15.80
2019-05-14T05:25:29.226Z,15.80
2019-05-14T05:27:59.908Z,15.80
2019-05-14T05:30:29.536Z,15.80
2019-05-14T05:32:59.653Z,15.80
2019-05-14T05:35:29.238Z,15.80
2019-05-14T05:37:58.537Z,15.80
2019-05-14T05:40:28.825Z,15.80
2019-05-14T05:42:58.318Z,15.90
2019-05-14T05:45:28.965Z,15.90
2019-05-14T05:48:01.480Z,15.90
2019-05-14T05:50:29.193Z,15.90
2019-05-14T05:52:58.618Z,15.90
2019-05-14T05:55:28.770Z,15.90
2019-05-14T05:57:58.717Z,15.90
2019-05-14T06:00:34.186Z,15.90
2019-05-14T06:03:03.510Z,15.90
2019-05-14T06:05:33.158Z,15.90
2019-05-14T06:08:02.053Z,15.90
2019-05-14T06:10:31.525Z,15.90
2019-05-14T06:13:00.799Z,15.80
2019-05-14T06:15:44.647Z,15.80
2019-05-14T06:18:13.861Z,15.80
2019-05-14T06:20:31.562Z,15.80
2019-05-14T06:23:00.852Z,15.70
2019-05-14T06:25:31.293Z,15.70
2019-05-14T06:28:01.644Z,15.70
2019-05-14T06:30:35.450Z,15.70
2019-05-14T06:33:04.672Z,15.70
2019-05-14T06:35:33.691Z,15.70
2019-05-14T06:38:02.710Z,15.70
2019-05-14T06:40:32.328Z,15.70
2019-05-14T06:43:01.491Z,15.70
2019-05-14T06:45:30.705Z,15.70
2019-05-14T06:47:59.988Z,15.60
2019-05-14T06:50:29.352Z,15.60
2019-05-14T06:52:59.244Z,15.60
2019-05-14T06:55:28.511Z,15.60
2019-05-14T06:57:58.533Z,15.50
2019-05-14T07:00:28.566Z,15.40
2019-05-14T07:02:58.432Z,15.40
2019-05-14T07:05:28.153Z,15.40
2019-05-14T07:07:59.663Z,15.30
2019-05-14T07:10:28.778Z,15.30
2019-05-14T07:12:59.278Z,15.20
2019-05-14T07:15:29.012Z,15.20
2019-05-14T07:17:58.489Z,15.20
2019-05-14T07:20:28.311Z,15.20
2019-05-14T07:22:58.627Z,15.10
2019-05-14T07:25:28.712Z,15.20
2019-05-14T07:27:58.312Z,15.20
2019-05-14T07:30:28.939Z,15.10
2019-05-14T07:32:58.814Z,15.10
2019-05-14T07:35:28.820Z,15.10
2019-05-14T07:37:59.096Z,15.10
2019-05-14T07:40:29.092Z,15.10
2019-05-14T07:42:58.399Z,15.10
2019-05-14T07:45:28.755Z,15.00
2019-05-14T07:47:58.286Z,15.00
2019-05-14T07:50:28.983Z,15.00
2019-05-14T07:52:58.679Z,15.00
2019-05-14T07:55:28.916Z,14.90
2019-05-14T07:57:58.670Z,14.90
2019-05-14T08:00:28.578Z,14.90
2019-05-14T08:02:58.173Z,14.90
2019-05-14T08:05:28.792Z,14.90
2019-05-14T08:07:58.581Z,14.90
2019-05-14T08:10:29.019Z,14.90
2019-05-14T08:12:59.264Z,14.90
2019-05-14T08:15:28.529Z,14.80
2019-05-14T08:17:58.520Z,14.90
2019-05-14T08:20:28.644Z,14.80
2019-05-14T08:22:58.289Z,14.80
2019-05-14T08:25:28.324Z,14.80
2019-05-14T08:27:58.697Z,14.80
2019-05-14T08:30:28.412Z,14.70
2019-05-14T08:32:58.320Z,14.70
2019-05-14T08:35:29.034Z,14.70
2019-05-14T08:38:07.805Z,14.70
2019-05-14T08:40:29.659Z,14.70
2019-05-14T08:42:58.580Z,14.70
2019-05-14T08:45:28.326Z,14.70
2019-05-14T08:47:58.666Z,14.60
2019-05-14T08:50:28.204Z,14.60
2019-05-14T08:52:58.296Z,14.60
2019-05-14T08:55:29.507Z,14.60
2019-05-14T08:57:59.861Z,14.60
2019-05-14T09:00:29.355Z,14.60
2019-05-14T09:02:59.094Z,14.60
2019-05-14T09:05:28.697Z,14.60
2019-05-14T09:07:58.180Z,14.50
2019-05-14T09:10:28.505Z,14.50
2019-05-14T09:12:58.405Z,14.40
2019-05-14T09:15:28.807Z,14.40
2019-05-14T09:17:58.773Z,14.30
2019-05-14T09:20:29.075Z,14.30
2019-05-14T09:22:59.425Z,14.30
2019-05-14T09:25:29.196Z,14.30
2019-05-14T09:27:58.686Z,14.20
2019-05-14T09:30:28.986Z,14.20
2019-05-14T09:32:59.381Z,14.20
2019-05-14T09:35:29.273Z,14.20
2019-05-14T09:37:59.275Z,14.20
2019-05-14T09:40:29.091Z,14.10
2019-05-14T09:42:59.163Z,14.10
2019-05-14T09:45:28.404Z,14.10
2019-05-14T09:47:58.537Z,14.10
2019-05-14T09:50:29.176Z,14.10
2019-05-14T09:52:59.281Z,14.10
2019-05-14T09:55:29.042Z,14.10
2019-05-14T09:57:58.639Z,14.10
2019-05-14T10:00:27.742Z,14.00
2019-05-14T10:02:59.378Z,14.00
2019-05-14T10:05:27.874Z,14.00
2019-05-14T10:07:59.265Z,14.00
2019-05-14T10:10:30.330Z,14.00
2019-05-14T10:13:01.311Z,14.00
2019-05-14T10:15:29.426Z,13.90
2019-05-14T10:18:00.288Z,13.80
2019-05-14T10:20:40.149Z,13.80
2019-05-14T10:23:00.264Z,13.80
2019-05-14T10:25:29.444Z,13.80
2019-05-14T10:27:59.048Z,13.80
2019-05-14T10:30:28.746Z,13.80
2019-05-14T10:33:07.122Z,13.70
2019-05-14T10:35:28.894Z,13.70
2019-05-14T10:37:59.875Z,13.70
2019-05-14T10:40:29.320Z,13.70
2019-05-14T10:42:59.974Z,13.60
2019-05-14T10:45:29.187Z,13.60
2019-05-14T10:47:58.702Z,13.60
2019-05-14T10:50:28.953Z,13.60
2019-05-14T10:52:59.568Z,13.60
2019-05-14T10:55:29.016Z,13.50
2019-05-14T10:57:58.545Z,13.50
2019-05-14T11:00:28.362Z,13.50
2019-05-14T11:02:57.433Z,13.40
2019-05-14T11:05:28.165Z,13.40
2019-05-14T11:07:58.662Z,13.40
2019-05-14T11:10:29.814Z,13.40
2019-05-14T11:12:59.454Z,13.40
2019-05-14T11:15:28.769Z,13.40
2019-05-14T11:17:58.049Z,13.40
2019-05-14T11:20:31.134Z,13.40
2019-05-14T11:22:58.423Z,13.40
2019-05-14T11:25:28.738Z,13.30
2019-05-14T11:27:58.636Z,13.30
2019-05-14T11:30:28.749Z,13.20
2019-05-14T11:32:59.679Z,13.20
2019-05-14T11:35:29.101Z,13.20
2019-05-14T11:37:58.844Z,13.20
2019-05-14T11:40:29.332Z,13.20
2019-05-14T11:42:59.276Z,13.10
2019-05-14T11:45:28.424Z,13.10
2019-05-14T11:47:58.378Z,13.10
2019-05-14T11:50:28.773Z,13.10
2019-05-14T11:52:58.601Z,13.10
2019-05-14T11:55:27.857Z,13.10
2019-05-14T11:57:58.285Z,13.00
2019-05-14T12:00:29.491Z,13.00
2019-05-14T12:02:58.791Z,13.00
2019-05-14T12:05:30.506Z,13.00
2019-05-14T12:08:00.927Z,13.00
2019-05-14T12:10:30.122Z,12.90
2019-05-14T12:12:59.505Z,13.00
2019-05-14T12:15:28.971Z,13.00
2019-05-14T12:17:59.573Z,12.90
2019-05-14T12:20:29.694Z,12.90
2019-05-14T12:22:59.248Z,12.90
2019-05-14T12:25:29.431Z,13.00
2019-05-14T12:27:59.096Z,12.90
2019-05-14T12:30:28.826Z,12.90
2019-05-14T12:32:59.044Z,12.90
2019-05-14T12:35:29.263Z,12.90
2019-05-14T12:37:58.780Z,12.90
2019-05-14T12:40:28.835Z,12.80
2019-05-14T12:42:59.265Z,12.90
2019-05-14T12:45:29.947Z,12.80
2019-05-14T12:47:59.139Z,12.80
2019-05-14T12:50:28.474Z,12.90
2019-05-14T12:52:58.824Z,12.80
2019-05-14T12:55:28.652Z,12.80
2019-05-14T12:57:59.743Z,12.80
2019-05-14T13:00:28.964Z,12.80
2019-05-14T13:02:58.633Z,12.80
2019-05-14T13:05:29.318Z,12.80
2019-05-14T13:07:58.894Z,12.70
2019-05-14T13:10:29.615Z,12.70
2019-05-14T13:12:59.835Z,12.70
2019-05-14T13:15:29.044Z,12.60
2019-05-14T13:17:58.305Z,12.60
2019-05-14T13:20:29.092Z,12.50
2019-05-14T13:22:58.365Z,12.50
2019-05-14T13:25:30.403Z,12.50
2019-05-14T13:27:59.379Z,12.50
2019-05-14T13:30:29.863Z,12.40
2019-05-14T13:32:59.453Z,12.30
2019-05-14T13:35:29.283Z,12.20
2019-05-14T13:37:58.764Z,12.20
2019-05-14T13:40:28.397Z,12.10
2019-05-14T13:42:57.887Z,12.10
2019-05-14T13:45:30.134Z,12.10
2019-05-14T13:47:59.090Z,12.10
2019-05-14T13:50:29.615Z,12.00
2019-05-14T13:53:07.622Z,12.00
2019-05-14T13:55:31.123Z,12.00
2019-05-14T13:58:00.530Z,11.90
2019-05-14T14:00:29.577Z,11.90
2019-05-14T14:02:59.113Z,11.90
2019-05-14T14:05:28.459Z,11.90
2019-05-14T14:07:59.054Z,11.80
2019-05-14T14:10:35.460Z,11.80
2019-05-14T14:13:00.131Z,11.80
2019-05-14T14:15:29.406Z,11.80
2019-05-14T14:18:00.458Z,11.90
2019-05-14T14:20:29.473Z,11.80
2019-05-14T14:23:09.132Z,11.80
2019-05-14T14:25:29.829Z,11.80
2019-05-14T14:28:00.385Z,11.80
2019-05-14T14:30:29.809Z,11.90
2019-05-14T14:32:59.108Z,11.90
2019-05-14T14:35:30.387Z,11.90
2019-05-14T14:37:59.276Z,11.90
2019-05-14T14:40:30.238Z,12.00
2019-05-14T14:42:59.716Z,12.10
2019-05-14T14:45:29.448Z,12.20
2019-05-14T14:48:01.337Z,12.20
2019-05-14T14:50:29.653Z,12.30
2019-05-14T14:52:59.823Z,12.30
2019-05-14T14:55:30.567Z,12.30
2019-05-14T14:58:00.229Z,12.40
2019-05-14T15:00:29.532Z,12.40
2019-05-14T15:02:59.770Z,12.30
2019-05-14T15:05:29.781Z,12.30
2019-05-14T15:08:00.130Z,12.40
2019-05-14T15:10:30.333Z,12.40
2019-05-14T15:12:59.578Z,12.40
2019-05-14T15:15:32.057Z,12.40
2019-05-14T15:17:59.707Z,12.40
2019-05-14T15:20:29.079Z,12.40
2019-05-14T15:22:59.958Z,12.40
2019-05-14T15:25:29.914Z,12.40
2019-05-14T15:27:59.270Z,12.40
2019-05-14T15:30:28.737Z,12.50
2019-05-14T15:32:59.830Z,12.50
2019-05-14T15:35:28.962Z,12.50
2019-05-14T15:37:59.007Z,12.60
2019-05-14T15:40:29.258Z,12.60
2019-05-14T15:43:01.761Z,12.50
2019-05-14T15:45:30.387Z,12.60
2019-05-14T15:48:03.755Z,12.60
2019-05-14T15:50:32.669Z,12.60
2019-05-14T15:53:01.407Z,12.70
2019-05-14T15:55:30.549Z,12.60
2019-05-14T15:57:59.666Z,12.60
2019-05-14T16:00:29.269Z,12.60
2019-05-14T16:03:00.273Z,12.60
2019-05-14T16:05:29.561Z,12.70
2019-05-14T16:07:59.425Z,12.70
2019-05-14T16:10:30.958Z,12.70
2019-05-14T16:13:00.956Z,12.80
2019-05-14T16:15:30.399Z,12.80
2019-05-14T16:18:07.681Z,12.90
2019-05-14T16:20:31.680Z,12.90
2019-05-14T16:23:00.643Z,13.10
2019-05-14T16:25:29.825Z,13.10
2019-05-14T16:27:59.505Z,13.20
2019-05-14T16:30:29.278Z,13.30
2019-05-14T16:32:59.788Z,13.20
2019-05-14T16:35:29.363Z,13.30
2019-05-14T16:37:59.156Z,13.40
2019-05-14T16:40:28.797Z,13.40
2019-05-14T16:42:59.184Z,13.40
2019-05-14T16:45:29.035Z,13.40
2019-05-14T16:47:59.370Z,13.50
2019-05-14T16:50:28.769Z,13.50
2019-05-14T16:52:58.888Z,13.50
2019-05-14T16:55:30.609Z,13.60
2019-05-14T16:58:00.073Z,13.70
2019-05-14T17:00:29.556Z,13.70
2019-05-14T17:02:59.136Z,13.80
2019-05-14T17:05:29.933Z,13.90
2019-05-14T17:07:59.183Z,13.90
2019-05-14T17:10:28.749Z,14.00
2019-05-14T17:13:01.599Z,14.10
2019-05-14T17:15:28.812Z,14.10
2019-05-14T17:17:59.650Z,14.20
2019-05-14T17:20:28.777Z,14.20
2019-05-14T17:22:59.447Z,14.40
2019-05-14T17:25:30.613Z,14.50
2019-05-14T17:27:59.958Z,14.60
2019-05-14T17:30:29.228Z,14.60
2019-05-14T17:32:59.006Z,14.80
2019-05-14T17:35:29.801Z,14.90
2019-05-14T17:37:59.179Z,14.90
2019-05-14T17:40:28.320Z,15.00
2019-05-14T17:42:59.189Z,15.00
2019-05-14T17:45:28.534Z,15.10
2019-05-14T17:47:58.533Z,15.30
2019-05-14T17:50:29.257Z,15.60
2019-05-14T17:53:00.151Z,15.80
2019-05-14T17:55:43.744Z,16.00
2019-05-14T17:58:00.594Z,16.40
2019-05-14T18:00:29.819Z,16.60
2019-05-14T18:02:59.283Z,17.00
2019-05-14T18:05:29.072Z,17.10
2019-05-14T18:07:59.320Z,17.40
2019-05-14T18:10:28.689Z,17.50
2019-05-14T18:12:59.834Z,17.50
2019-05-14T18:15:29.265Z,17.70
2019-05-14T18:17:59.019Z,17.60
2019-05-14T18:20:28.942Z,17.60
2019-05-14T18:22:58.412Z,17.50
2019-05-14T18:25:29.108Z,17.70
2019-05-14T18:27:58.265Z,17.80
2019-05-14T18:30:28.989Z,18.10
2019-05-14T18:32:58.494Z,18.30
2019-05-14T18:35:29.483Z,18.40
2019-05-14T18:37:59.423Z,18.60
2019-05-14T18:40:28.699Z,18.40
2019-05-14T18:42:59.043Z,18.20
2019-05-14T18:45:29.471Z,18.10
2019-05-14T18:47:59.806Z,18.20
2019-05-14T18:50:29.085Z,18.20
2019-05-14T18:52:59.740Z,18.30
2019-05-14T18:55:29.452Z,18.30
2019-05-14T18:57:59.352Z,18.10
2019-05-14T19:00:29.420Z,17.90
2019-05-14T19:02:59.820Z,17.50
2019-05-14T19:05:29.470Z,17.40
2019-05-14T19:07:59.325Z,17.40
2019-05-14T19:10:28.766Z,17.40
2019-05-14T19:12:58.790Z,17.40
2019-05-14T19:15:28.084Z,17.50
2019-05-14T19:17:58.724Z,17.40
2019-05-14T19:20:28.296Z,17.40
2019-05-14T19:23:00.145Z,17.20
2019-05-14T19:25:28.748Z,17.30
2019-05-14T19:27:58.350Z,17.40
2019-05-14T19:30:28.610Z,17.50
2019-05-14T19:32:58.854Z,17.50
2019-05-14T19:35:28.642Z,17.50
2019-05-14T19:37:59.430Z,17.60
2019-05-14T19:40:28.691Z,17.60
2019-05-14T19:42:57.962Z,17.60
2019-05-14T19:45:28.118Z,17.80
2019-05-14T19:47:58.554Z,17.80
2019-05-14T19:50:29.382Z,17.80
2019-05-14T19:52:58.937Z,17.80
2019-05-14T19:55:28.843Z,17.70
2019-05-14T19:57:58.325Z,17.60
2019-05-14T20:00:28.803Z,17.40
2019-05-14T20:02:58.524Z,17.40
2019-05-14T20:05:28.638Z,17.50
2019-05-14T20:07:59.028Z,17.60
2019-05-14T20:10:29.381Z,17.70
2019-05-14T20:12:59.242Z,17.90
2019-05-14T20:15:28.676Z,17.70
2019-05-14T20:17:58.263Z,17.70
2019-05-14T20:20:28.786Z,17.90
2019-05-14T20:22:59.056Z,18.40
2019-05-14T20:25:28.765Z,18.90
2019-05-14T20:27:58.729Z,19.20
2019-05-14T20:30:29.444Z,19.50
2019-05-14T20:32:59.388Z,19.70
2019-05-14T20:35:34.580Z,19.70
2019-05-14T20:37:59.309Z,19.50
2019-05-14T20:40:28.597Z,19.30
2019-05-14T20:42:58.879Z,19.10
2019-05-14T20:45:28.973Z,18.80
2019-05-14T20:47:58.769Z,18.60
2019-05-14T20:50:29.033Z,18.60
2019-05-14T20:52:59.204Z,18.60
2019-05-14T20:55:28.741Z,18.60
2019-05-14T20:57:58.725Z,18.70
2019-05-14T21:00:29.449Z,18.90
2019-05-14T21:02:59.646Z,18.90
2019-05-14T21:05:28.973Z,19.20
2019-05-14T21:07:58.935Z,19.20
2019-05-14T21:10:29.441Z,19.20
2019-05-14T21:12:58.777Z,19.40
2019-05-14T21:15:28.513Z,19.60
2019-05-14T21:17:59.708Z,19.60
2019-05-14T21:20:29.072Z,19.80
2019-05-14T21:22:58.678Z,19.80
2019-05-14T21:25:29.603Z,20.00
2019-05-14T21:27:59.063Z,20.20
2019-05-14T21:30:29.632Z,20.50
2019-05-14T21:33:00.540Z,20.70
2019-05-14T21:35:30.056Z,20.60
2019-05-14T21:38:00.197Z,20.50
2019-05-14T21:40:32.064Z,20.40
2019-05-14T21:43:01.032Z,20.30
2019-05-14T21:45:30.512Z,20.20
2019-05-14T21:48:00.106Z,20.10
2019-05-14T21:50:29.306Z,20.10
2019-05-14T21:52:59.626Z,20.10
2019-05-14T21:55:29.140Z,20.10
2019-05-14T21:57:58.462Z,19.90
2019-05-14T22:00:38.753Z,19.90
2019-05-14T22:03:10.304Z,19.60
2019-05-14T22:05:39.453Z,19.40
2019-05-14T22:08:09.073Z,19.20
2019-05-14T22:10:39.831Z,19.20
2019-05-14T22:13:09.147Z,19.10
2019-05-14T22:15:39.511Z,19.10
2019-05-14T22:18:17.360Z,18.90
2019-05-14T22:20:39.962Z,18.60
2019-05-14T22:23:09.140Z,18.60
2019-05-14T22:25:39.430Z,18.40
2019-05-14T22:28:15.111Z,18.40
2019-05-14T22:30:39.923Z,18.40
2019-05-14T22:33:09.078Z,18.30
2019-05-14T22:35:39.664Z,18.30
2019-05-14T22:38:09.227Z,18.50
2019-05-14T22:40:39.125Z,18.70
2019-05-14T22:43:09.381Z,18.90
2019-05-14T22:45:38.546Z,19.10
2019-05-14T22:48:09.370Z,19.10
2019-05-14T22:50:41.288Z,19.10
2019-05-14T22:53:09.449Z,19.10
2019-05-14T22:55:38.731Z,19.20
2019-05-14T22:58:09.951Z,19.30
2019-05-14T23:00:46.999Z,19.20
2019-05-14T23:03:10.518Z,18.70
2019-05-14T23:05:39.688Z,18.20
2019-05-14T23:08:09.216Z,18.00
2019-05-14T23:10:38.969Z,17.90
2019-05-14T23:13:09.418Z,17.90
2019-05-14T23:15:38.985Z,17.80
2019-05-14T23:18:09.070Z,17.80
2019-05-14T23:20:39.052Z,17.80
2019-05-14T23:23:09.215Z,17.80
2019-05-14T23:25:38.979Z,17.70
2019-05-14T23:28:08.526Z,17.80
2019-05-14T23:30:38.772Z,17.80
2019-05-14T23:33:08.450Z,17.70
2019-05-14T23:35:39.090Z,17.60
2019-05-14T23:38:08.583Z,17.50
2019-05-14T23:40:38.668Z,17.40
2019-05-14T23:43:08.072Z,17.40
2019-05-14T23:45:38.106Z,17.40
2019-05-14T23:48:09.474Z,17.50
2019-05-14T23:50:38.120Z,17.60
2019-05-14T23:53:09.183Z,17.70
2019-05-14T23:55:38.690Z,17.80
2019-05-14T23:58:08.366Z,17.90
